createdAt,value
2023-02-09T00:01:20.043Z,71.48
2023-02-09T00:03:51.289Z,70.92
2023-02-09T00:06:21.161Z,70.91
2023-02-09T00:08:51.628Z,71.11
2023-02-09T00:11:46.302Z,71.14
2023-02-09T00:14:21.746Z,71.20
2023-02-09T00:16:53.505Z,71.44
2023-02-09T00:19:22.772Z,71.66
2023-02-09T00:21:53.457Z,72.30
2023-02-09T00:24:23.810Z,72.44
2023-02-09T00:26:54.835Z,73.17
2023-02-09T00:29:25.646Z,73.39
2023-02-09T00:31:56.147Z,73.81
2023-02-09T00:34:26.628Z,74.30
2023-02-09T00:36:59.247Z,74.64
2023-02-09T00:39:30.319Z,74.79
2023-02-09T00:42:11.124Z,74.74
2023-02-09T00:44:42.775Z,75.36
2023-02-09T00:47:13.301Z,75.33
2023-02-09T00:49:44.309Z,75.24
2023-02-09T00:52:14.977Z,75.38
2023-02-09T00:54:45.603Z,75.76
2023-02-09T00:57:16.370Z,75.78
2023-02-09T00:59:46.969Z,75.71
2023-02-09T01:02:17.528Z,75.83
2023-02-09T01:04:48.107Z,75.55
2023-02-09T01:07:20.014Z,75.71
2023-02-09T01:09:50.509Z,75.60
2023-02-09T01:12:23.254Z,75.81
2023-02-09T01:14:54.113Z,76.36
2023-02-09T01:17:25.103Z,76.71
2023-02-09T01:19:56.278Z,77.21
2023-02-09T01:22:26.713Z,76.79
2023-02-09T01:24:57.286Z,76.71
2023-02-09T01:27:27.812Z,76.80
2023-02-09T01:29:58.273Z,77.01
2023-02-09T01:32:28.839Z,77.18
2023-02-09T01:34:59.561Z,77.16
2023-02-09T01:37:30.008Z,77.23
2023-02-09T01:40:00.797Z,77.15
2023-02-09T01:42:31.430Z,77.25
2023-02-09T01:45:22.562Z,77.41
2023-02-09T01:47:59.809Z,77.69
2023-02-09T01:50:34.604Z,77.94
2023-02-09T01:53:05.522Z,77.89
2023-02-09T01:55:41.328Z,77.76
2023-02-09T01:58:16.597Z,77.75
2023-02-09T02:00:48.675Z,77.68
2023-02-09T02:03:22.086Z,77.74
2023-02-09T02:05:56.551Z,78.04
2023-02-09T02:08:34.420Z,77.70
2023-02-09T02:11:06.147Z,77.47
2023-02-09T02:13:37.017Z,77.39
2023-02-09T02:16:21.239Z,77.30
2023-02-09T02:19:03.804Z,76.65
2023-02-09T02:22:03.930Z,76.41
2023-02-09T02:25:16.870Z,76.49
2023-02-09T02:27:55.084Z,76.39
2023-02-09T02:30:45.113Z,76.36
2023-02-09T02:33:24.928Z,76.46
2023-02-09T02:36:03.591Z,76.42
2023-02-09T02:38:39.949Z,76.35
2023-02-09T02:41:17.122Z,76.37
2023-02-09T02:43:56.360Z,76.43
2023-02-09T02:46:34.778Z,76.44
2023-02-09T02:49:10.465Z,76.49
2023-02-09T02:51:43.401Z,76.27
2023-02-09T02:54:19.015Z,76.52
2023-02-09T02:56:54.518Z,76.41
2023-02-09T02:59:33.970Z,76.41
2023-02-09T03:02:09.458Z,76.20
2023-02-09T03:04:41.072Z,75.99
2023-02-09T03:07:11.778Z,76.25
2023-02-09T03:09:51.586Z,76.10
2023-02-09T03:12:45.633Z,76.00
2023-02-09T03:15:25.570Z,76.18
2023-02-09T03:20:55.986Z,76.37
2023-02-09T03:23:33.133Z,76.26
2023-02-09T03:26:13.932Z,76.04
2023-02-09T03:28:47.302Z,75.50
2023-02-09T03:31:18.546Z,75.28
2023-02-09T03:33:50.286Z,75.25
2023-02-09T03:36:22.686Z,75.08
2023-02-09T03:38:53.223Z,74.96
2023-02-09T03:41:23.635Z,75.01
2023-02-09T03:44:11.674Z,75.01
2023-02-09T03:46:43.842Z,75.44
2023-02-09T03:49:15.409Z,75.48
2023-02-09T03:51:45.881Z,75.65
2023-02-09T03:54:16.485Z,75.71
2023-02-09T03:56:46.850Z,75.90
2023-02-09T03:59:21.459Z,76.17
2023-02-09T04:01:53.674Z,76.09
2023-02-09T04:04:24.938Z,75.95
2023-02-09T04:06:54.216Z,76.04
2023-02-09T04:09:25.473Z,76.01
2023-02-09T04:11:54.775Z,76.08
2023-02-09T04:14:25.580Z,76.34
2023-02-09T04:16:56.116Z,76.22
2023-02-09T04:19:27.092Z,76.12
2023-02-09T04:21:57.581Z,76.04
2023-02-09T04:24:31.231Z,75.95
2023-02-09T04:27:01.871Z,76.02
2023-02-09T04:29:32.316Z,76.25
2023-02-09T04:32:03.319Z,76.22
2023-02-09T04:34:34.115Z,76.04
2023-02-09T04:37:04.735Z,76.12
2023-02-09T04:39:35.395Z,76.14
2023-02-09T04:42:06.231Z,76.37
2023-02-09T04:44:36.578Z,76.38
2023-02-09T04:47:07.358Z,76.44
2023-02-09T04:49:38.236Z,76.64
2023-02-09T04:52:08.697Z,76.49
2023-02-09T04:54:39.410Z,76.56
2023-02-09T04:57:27.259Z,76.37
2023-02-09T04:59:58.990Z,76.91
2023-02-09T05:02:29.444Z,76.96
2023-02-09T05:05:00.510Z,77.08
2023-02-09T05:07:31.110Z,77.08
2023-02-09T05:10:01.530Z,77.51
2023-02-09T05:12:32.150Z,78.09
2023-02-09T05:15:02.573Z,78.32
2023-02-09T05:17:34.942Z,78.53
2023-02-09T05:20:06.545Z,78.91
2023-02-09T05:22:38.268Z,79.14
2023-02-09T05:25:09.632Z,79.44
2023-02-09T05:27:40.546Z,79.74
2023-02-09T05:30:25.469Z,79.55
2023-02-09T05:32:56.574Z,79.47
2023-02-09T05:35:27.754Z,79.98
2023-02-09T05:37:56.835Z,80.43
2023-02-09T05:40:27.260Z,80.49
2023-02-09T05:42:59.916Z,80.78
2023-02-09T05:45:30.681Z,80.76
2023-02-09T05:48:02.131Z,80.95
2023-02-09T05:50:33.095Z,81.19
2023-02-09T05:53:15.248Z,81.07
2023-02-09T05:55:47.248Z,81.08
2023-02-09T05:58:18.019Z,81.13
2023-02-09T06:00:51.120Z,81.03
2023-02-09T06:03:21.742Z,81.01
2023-02-09T06:05:52.450Z,81.59
2023-02-09T06:08:23.295Z,81.60
2023-02-09T06:10:54.135Z,82.21
2023-02-09T06:13:24.454Z,82.34
2023-02-09T06:15:55.405Z,82.68
2023-02-09T06:18:26.001Z,82.96
2023-02-09T06:20:56.939Z,82.96
2023-02-09T06:23:27.660Z,83.11
2023-02-09T06:25:58.367Z,83.41
2023-02-09T06:28:28.966Z,83.37
2023-02-09T06:30:59.566Z,83.33
2023-02-09T06:33:30.536Z,83.35
2023-02-09T06:36:00.882Z,83.48
2023-02-09T06:38:33.317Z,83.52
2023-02-09T06:41:04.043Z,83.45
2023-02-09T06:43:34.583Z,83.31
2023-02-09T06:46:11.396Z,83.48
2023-02-09T06:48:42.568Z,83.60
2023-02-09T06:51:15.024Z,84.05
2023-02-09T06:53:45.858Z,84.10
2023-02-09T06:56:16.435Z,84.06
2023-02-09T06:58:46.852Z,84.48
2023-02-09T07:01:17.620Z,84.57
2023-02-09T07:03:48.121Z,84.31
2023-02-09T07:06:21.193Z,84.39
2023-02-09T07:08:52.634Z,84.18
2023-02-09T07:11:23.006Z,84.35
2023-02-09T07:13:53.413Z,84.41
2023-02-09T07:16:23.974Z,84.46
2023-02-09T07:18:54.603Z,84.19
2023-02-09T07:21:24.998Z,83.97
2023-02-09T07:23:55.479Z,84.03
2023-02-09T07:26:26.286Z,83.99
2023-02-09T07:29:02.370Z,83.94
2023-02-09T07:31:33.237Z,84.24
2023-02-09T07:34:03.800Z,84.15
2023-02-09T07:36:37.419Z,84.42
2023-02-09T07:39:07.848Z,84.49
2023-02-09T07:41:41.451Z,84.54
2023-02-09T07:44:12.544Z,84.68
2023-02-09T07:46:43.371Z,84.41
2023-02-09T07:49:16.504Z,84.52
2023-02-09T07:51:47.191Z,84.63
2023-02-09T07:54:17.810Z,84.66
2023-02-09T07:56:48.526Z,84.87
2023-02-09T07:59:19.384Z,84.97
2023-02-09T08:01:53.431Z,84.82
2023-02-09T08:04:24.131Z,84.80
2023-02-09T08:06:56.026Z,84.63
2023-02-09T08:09:26.969Z,84.76
2023-02-09T08:11:59.963Z,84.57
2023-02-09T08:14:35.711Z,84.46
2023-02-09T08:17:26.084Z,84.51
2023-02-09T08:20:00.243Z,84.27
2023-02-09T08:22:34.527Z,84.16
2023-02-09T08:25:06.386Z,84.30
2023-02-09T08:27:39.208Z,84.42
2023-02-09T08:30:11.637Z,84.30
2023-02-09T08:32:42.297Z,84.25
2023-02-09T08:35:12.675Z,84.15
2023-02-09T08:37:45.182Z,83.93
2023-02-09T08:40:15.902Z,83.62
2023-02-09T08:42:46.566Z,83.49
2023-02-09T08:45:17.208Z,83.35
2023-02-09T08:47:47.599Z,83.26
2023-02-09T08:50:19.731Z,83.03
2023-02-09T08:52:50.661Z,82.84
2023-02-09T08:55:21.702Z,82.73
2023-02-09T08:57:52.269Z,82.57
2023-02-09T09:00:23.473Z,82.42
2023-02-09T09:02:52.454Z,82.35
2023-02-09T09:05:23.024Z,81.96
2023-02-09T09:07:53.357Z,81.51
2023-02-09T09:10:23.809Z,81.16
2023-02-09T09:12:55.237Z,80.22
2023-02-09T09:15:24.307Z,80.18
2023-02-09T09:17:54.742Z,79.87
2023-02-09T09:20:25.275Z,79.33
2023-02-09T09:22:59.518Z,79.34
2023-02-09T09:25:30.241Z,77.88
2023-02-09T09:28:00.895Z,77.52
2023-02-09T09:30:31.620Z,77.61
2023-02-09T09:33:02.169Z,76.95
2023-02-09T09:35:33.276Z,75.88
2023-02-09T09:38:04.773Z,75.66
2023-02-09T09:40:39.360Z,75.31
2023-02-09T09:43:24.700Z,75.02
2023-02-09T09:45:55.648Z,73.25
2023-02-09T09:48:29.689Z,73.73
2023-02-09T09:51:07.287Z,73.00
2023-02-09T09:53:40.231Z,72.11
2023-02-09T09:56:12.356Z,71.01
2023-02-09T09:58:45.569Z,70.55
2023-02-09T10:01:19.157Z,70.59
2023-02-09T10:03:50.362Z,70.82
2023-02-09T10:06:23.794Z,69.71
2023-02-09T10:08:58.343Z,68.05
2023-02-09T10:11:34.557Z,68.57
2023-02-09T10:14:05.183Z,69.08
2023-02-09T10:16:38.338Z,68.54
2023-02-09T10:19:20.623Z,68.62
2023-02-09T10:21:52.033Z,67.66
2023-02-09T10:24:26.468Z,67.63
2023-02-09T10:27:14.606Z,66.96
2023-02-09T10:29:44.981Z,66.66
2023-02-09T10:32:22.651Z,66.63
2023-02-09T10:34:56.923Z,66.28
2023-02-09T10:37:36.355Z,65.95
2023-02-09T10:40:18.893Z,66.08
2023-02-09T10:42:57.933Z,66.63
2023-02-09T10:45:34.144Z,66.40
2023-02-09T10:48:17.650Z,66.05
2023-02-09T10:50:54.241Z,65.61
2023-02-09T10:53:28.264Z,65.00
2023-02-09T10:56:08.143Z,65.38
2023-02-09T10:58:40.445Z,65.39
2023-02-09T11:01:20.500Z,64.91
2023-02-09T11:04:02.888Z,65.36
2023-02-09T11:06:49.157Z,64.94
2023-02-09T11:09:21.530Z,65.04
2023-02-09T11:11:52.749Z,64.61
2023-02-09T11:14:23.776Z,64.37
2023-02-09T11:17:05.010Z,64.21
2023-02-09T11:20:07.528Z,64.48
2023-02-09T11:22:59.461Z,64.69
2023-02-09T11:25:34.278Z,64.95
2023-02-09T11:28:31.120Z,64.91
2023-02-09T11:31:17.721Z,63.90
2023-02-09T11:33:58.805Z,63.84
2023-02-09T11:36:41.949Z,63.50
2023-02-09T11:39:18.177Z,63.98
2023-02-09T11:42:13.434Z,63.99
2023-02-09T11:44:50.555Z,63.35
2023-02-09T11:47:26.902Z,63.53
2023-02-09T11:50:03.205Z,62.51
2023-02-09T11:52:39.230Z,61.31
2023-02-09T11:55:24.049Z,60.96
2023-02-09T11:58:02.311Z,61.43
2023-02-09T12:00:53.484Z,61.14
2023-02-09T12:03:28.727Z,61.21
2023-02-09T12:05:59.375Z,60.34
2023-02-09T12:08:48.873Z,60.82
2023-02-09T12:11:30.910Z,60.72
2023-02-09T12:14:57.934Z,61.26
2023-02-09T12:17:38.303Z,60.83
2023-02-09T12:20:26.869Z,60.02
2023-02-09T12:23:07.861Z,59.71
2023-02-09T12:25:53.115Z,59.66
2023-02-09T12:28:47.076Z,58.53
2023-02-09T12:31:24.684Z,58.70
2023-02-09T12:34:14.025Z,57.86
2023-02-09T12:37:11.463Z,58.09
2023-02-09T12:40:18.502Z,57.82
2023-02-09T12:43:11.458Z,56.85
2023-02-09T12:45:45.060Z,56.53
2023-02-09T12:48:19.354Z,56.19
2023-02-09T12:50:56.054Z,55.37
2023-02-09T12:53:42.870Z,54.90
2023-02-09T12:56:34.648Z,54.45
2023-02-09T12:59:23.760Z,52.88
2023-02-09T13:02:23.954Z,52.10
2023-02-09T13:05:02.550Z,50.86
2023-02-09T13:07:52.805Z,50.52
2023-02-09T13:10:30.210Z,49.64
2023-02-09T13:13:07.675Z,49.23
2023-02-09T13:15:53.103Z,48.97
2023-02-09T13:18:31.981Z,48.95
2023-02-09T13:21:21.035Z,48.74
2023-02-09T13:24:02.076Z,49.39
2023-02-09T13:26:36.263Z,48.09
2023-02-09T13:29:20.549Z,45.99
2023-02-09T13:32:04.690Z,44.95
2023-02-09T13:34:41.488Z,45.27
2023-02-09T13:37:30.892Z,45.08
2023-02-09T13:40:04.745Z,44.78
2023-02-09T13:42:39.620Z,44.93
2023-02-09T13:45:21.268Z,44.90
2023-02-09T13:47:52.638Z,44.27
2023-02-09T13:50:23.286Z,44.21
2023-02-09T13:52:54.054Z,44.56
2023-02-09T13:55:27.331Z,44.19
2023-02-09T13:58:02.701Z,42.48
2023-02-09T14:00:41.095Z,43.20
2023-02-09T14:03:19.253Z,42.49
2023-02-09T14:05:55.186Z,43.77
2023-02-09T14:08:28.295Z,43.52
2023-02-09T14:11:07.533Z,44.38
2023-02-09T14:13:44.187Z,42.95
2023-02-09T14:16:18.763Z,43.09
2023-02-09T14:18:54.398Z,42.87
2023-02-09T14:21:32.598Z,43.35
2023-02-09T14:24:20.544Z,42.39
2023-02-09T14:26:59.324Z,40.87
2023-02-09T14:29:32.184Z,41.85
2023-02-09T14:32:07.373Z,41.21
2023-02-09T14:34:40.911Z,41.11
2023-02-09T14:37:32.162Z,41.63
2023-02-09T14:40:20.898Z,41.15
2023-02-09T14:43:03.499Z,41.84
2023-02-09T14:45:43.307Z,42.37
2023-02-09T14:48:21.943Z,41.26
2023-02-09T14:50:55.025Z,40.85
2023-02-09T14:53:28.307Z,41.31
2023-02-09T14:55:59.556Z,42.67
2023-02-09T14:58:32.039Z,43.47
2023-02-09T15:01:03.931Z,44.22
2023-02-09T15:03:34.480Z,44.11
2023-02-09T15:06:06.903Z,44.72
2023-02-09T15:08:39.191Z,45.72
2023-02-09T15:11:30.795Z,46.31
2023-02-09T15:14:01.644Z,46.63
2023-02-09T15:16:32.348Z,46.96
2023-02-09T15:19:06.534Z,47.74
2023-02-09T15:21:37.072Z,48.62
2023-02-09T15:24:08.708Z,49.35
2023-02-09T15:26:39.713Z,49.36
2023-02-09T15:29:19.007Z,49.97
2023-02-09T15:31:49.453Z,50.47
2023-02-09T15:34:20.072Z,50.24
2023-02-09T15:36:51.291Z,50.51
2023-02-09T15:39:25.278Z,51.10
2023-02-09T15:42:16.444Z,51.65
2023-02-09T15:45:08.361Z,51.77
2023-02-09T15:47:52.860Z,52.27
2023-02-09T15:50:23.471Z,52.68
2023-02-09T15:52:55.407Z,52.93
2023-02-09T15:55:26.955Z,53.50
2023-02-09T15:57:58.632Z,53.56
2023-02-09T16:00:31.283Z,53.62
2023-02-09T16:03:03.056Z,54.18
2023-02-09T16:05:37.868Z,55.31
2023-02-09T16:08:09.977Z,55.19
2023-02-09T16:10:40.487Z,55.87
2023-02-09T16:13:14.753Z,56.35
2023-02-09T16:15:45.579Z,57.13
2023-02-09T16:18:16.983Z,58.20
2023-02-09T16:20:47.893Z,58.46
2023-02-09T16:23:22.652Z,59.39
2023-02-09T16:25:54.707Z,59.90
2023-02-09T16:28:25.412Z,60.54
2023-02-09T16:30:58.526Z,61.70
2023-02-09T16:33:29.173Z,62.03
2023-02-09T16:36:01.869Z,62.69
2023-02-09T16:38:32.707Z,63.89
2023-02-09T16:41:26.086Z,64.68
2023-02-09T16:43:56.731Z,65.54
2023-02-09T16:46:29.499Z,65.83
2023-02-09T16:49:01.725Z,66.28
2023-02-09T16:51:32.450Z,66.34
2023-02-09T16:54:02.924Z,66.81
2023-02-09T16:56:34.812Z,67.43
2023-02-09T16:59:07.020Z,68.26
2023-02-09T17:01:39.348Z,69.02
2023-02-09T17:04:15.448Z,69.29
2023-02-09T17:06:52.925Z,69.89
2023-02-09T17:09:24.119Z,70.97
2023-02-09T17:11:53.382Z,71.74
2023-02-09T17:14:24.403Z,71.98
2023-02-09T17:16:56.660Z,72.07
2023-02-09T17:19:42.096Z,72.63
2023-02-09T17:22:18.409Z,72.70
2023-02-09T17:24:48.409Z,72.79
2023-02-09T17:27:18.927Z,72.64
2023-02-09T17:29:49.305Z,72.89
2023-02-09T17:32:24.110Z,73.35
2023-02-09T17:34:59.917Z,73.67
2023-02-09T17:37:30.303Z,73.80
2023-02-09T17:40:01.552Z,74.10
2023-02-09T17:42:37.981Z,74.63
2023-02-09T17:45:23.260Z,75.14
2023-02-09T17:47:55.611Z,75.29
2023-02-09T17:50:32.894Z,75.70
2023-02-09T17:53:03.926Z,75.93
2023-02-09T17:55:34.497Z,75.86
2023-02-09T17:58:05.010Z,75.84
2023-02-09T18:00:35.717Z,75.54
2023-02-09T18:03:07.312Z,75.91
2023-02-09T18:05:39.249Z,75.41
2023-02-09T18:08:10.010Z,75.84
2023-02-09T18:10:40.741Z,75.69
2023-02-09T18:13:16.762Z,75.51
2023-02-09T18:15:49.288Z,75.74
2023-02-09T18:18:21.553Z,75.74
2023-02-09T18:20:53.717Z,76.21
2023-02-09T18:23:27.068Z,76.66
2023-02-09T18:25:58.132Z,76.69
2023-02-09T18:28:28.840Z,76.76
2023-02-09T18:30:59.568Z,77.36
2023-02-09T18:33:33.195Z,77.12
2023-02-09T18:36:04.020Z,77.21
2023-02-09T18:38:35.516Z,77.37
2023-02-09T18:41:29.284Z,77.43
2023-02-09T18:44:00.177Z,77.34
2023-02-09T18:46:30.951Z,77.34
2023-02-09T18:49:07.981Z,77.37
2023-02-09T18:51:38.702Z,77.48
2023-02-09T18:54:09.198Z,77.63
2023-02-09T18:56:39.894Z,77.97
2023-02-09T18:59:10.457Z,78.16
2023-02-09T19:01:41.301Z,77.89
2023-02-09T19:04:12.044Z,77.85
2023-02-09T19:06:42.885Z,77.68
2023-02-09T19:09:13.698Z,77.51
2023-02-09T19:11:44.455Z,77.51
2023-02-09T19:14:35.735Z,77.73
2023-02-09T19:17:13.966Z,77.79
2023-02-09T19:19:48.793Z,77.94
2023-02-09T19:22:22.858Z,78.32
2023-02-09T19:24:55.744Z,78.42
2023-02-09T19:27:29.777Z,78.38
2023-02-09T19:30:03.570Z,78.31
2023-02-09T19:32:34.378Z,78.44
2023-02-09T19:35:07.555Z,78.30
2023-02-09T19:37:40.642Z,78.32
2023-02-09T19:40:21.145Z,78.59
2023-02-09T19:42:52.243Z,78.59
2023-02-09T19:45:23.315Z,78.38
2023-02-09T19:47:53.780Z,78.37
2023-02-09T19:50:24.362Z,78.66
2023-02-09T19:52:57.746Z,78.53
2023-02-09T19:55:29.568Z,78.61
2023-02-09T19:58:00.297Z,78.54
2023-02-09T20:00:33.119Z,78.47
2023-02-09T20:03:03.705Z,78.55
2023-02-09T20:05:34.716Z,78.60
2023-02-09T20:08:05.325Z,78.76
2023-02-09T20:10:36.428Z,78.88
2023-02-09T20:13:07.432Z,78.56
2023-02-09T20:15:40.549Z,78.57
2023-02-09T20:18:13.382Z,78.37
2023-02-09T20:20:46.683Z,78.53
2023-02-09T20:23:16.470Z,78.64
2023-02-09T20:25:47.406Z,78.52
2023-02-09T20:28:17.756Z,78.67
2023-02-09T20:30:49.371Z,78.74
2023-02-09T20:33:20.251Z,79.01
2023-02-09T20:35:51.151Z,79.34
2023-02-09T20:38:21.964Z,79.35
2023-02-09T20:40:52.419Z,79.49
2023-02-09T20:43:40.770Z,79.05
2023-02-09T20:46:38.743Z,79.16
2023-02-09T20:49:10.966Z,79.41
2023-02-09T20:51:41.552Z,79.61
2023-02-09T20:54:12.042Z,79.68
2023-02-09T20:56:42.671Z,79.99
2023-02-09T20:59:14.525Z,80.19
2023-02-09T21:01:46.053Z,80.24
2023-02-09T21:04:16.593Z,80.08
2023-02-09T21:06:47.339Z,80.25
2023-02-09T21:09:19.143Z,80.51
2023-02-09T21:11:49.892Z,80.57
2023-02-09T21:14:27.500Z,80.53
2023-02-09T21:17:03.813Z,80.73
2023-02-09T21:19:35.911Z,80.88
2023-02-09T21:22:06.618Z,80.96
2023-02-09T21:24:37.444Z,81.04
2023-02-09T21:27:08.432Z,81.33
2023-02-09T21:29:38.887Z,81.47
2023-02-09T21:32:09.568Z,81.84
2023-02-09T21:34:40.133Z,82.06
2023-02-09T21:37:12.998Z,82.29
2023-02-09T21:39:43.478Z,82.20
2023-02-09T21:42:28.708Z,82.20
2023-02-09T21:45:00.583Z,82.79
2023-02-09T21:47:32.975Z,82.73
2023-02-09T21:50:03.818Z,82.92
2023-02-09T21:52:35.348Z,82.79
2023-02-09T21:55:08.345Z,83.11
2023-02-09T21:57:39.563Z,83.39
2023-02-09T22:00:12.924Z,83.44
2023-02-09T22:02:44.304Z,83.50
2023-02-09T22:05:14.821Z,83.71
2023-02-09T22:07:46.383Z,83.65
2023-02-09T22:10:18.548Z,83.66
2023-02-09T22:12:49.827Z,83.64
2023-02-09T22:15:19.257Z,83.63
2023-02-09T22:17:50.661Z,83.63
2023-02-09T22:20:19.652Z,83.69
2023-02-09T22:22:50.089Z,84.05
2023-02-09T22:25:22.689Z,84.35
2023-02-09T22:27:53.369Z,84.16
2023-02-09T22:30:24.111Z,84.08
2023-02-09T22:32:54.674Z,84.21
2023-02-09T22:35:25.151Z,84.08
2023-02-09T22:37:55.667Z,84.23
2023-02-09T22:40:25.984Z,84.44
2023-02-09T22:42:56.438Z,84.82
2023-02-09T22:45:28.891Z,84.94
2023-02-09T22:47:59.440Z,85.52
2023-02-09T22:50:29.831Z,86.07
2023-02-09T22:53:00.259Z,86.24
2023-02-09T22:55:30.870Z,86.17
2023-02-09T22:58:01.334Z,86.27
2023-02-09T23:00:31.859Z,86.78
2023-02-09T23:03:02.261Z,86.75
2023-02-09T23:05:32.804Z,87.00
2023-02-09T23:08:04.088Z,86.91
2023-02-09T23:10:32.922Z,86.95
2023-02-09T23:13:03.489Z,87.12
2023-02-09T23:15:33.913Z,87.44
2023-02-09T23:18:04.264Z,87.58
2023-02-09T23:20:34.676Z,87.56
2023-02-09T23:23:06.632Z,87.79
2023-02-09T23:25:37.061Z,87.54
2023-02-09T23:28:07.498Z,87.52
2023-02-09T23:30:37.971Z,87.87
2023-02-09T23:33:08.358Z,87.84
2023-02-09T23:35:42.764Z,87.94
2023-02-09T23:38:13.316Z,88.00
2023-02-09T23:40:43.881Z,87.84
2023-02-09T23:43:14.372Z,88.12
2023-02-09T23:45:44.734Z,88.14
2023-02-09T23:48:15.225Z,88.86
2023-02-09T23:50:45.674Z,88.71
2023-02-09T23:53:17.396Z,88.69
2023-02-09T23:56:01.206Z,88.77
2023-02-09T23:58:31.972Z,88.58
